createdAt,value
2019-03-05T00:05:08.028Z,99.90
2019-03-05T00:10:23.630Z,99.90
2019-03-05T00:15:38.454Z,99.90
2019-03-05T00:20:53.225Z,99.90
2019-03-05T00:26:07.595Z,99.90
2019-03-05T00:31:29.981Z,99.90
2019-03-05T00:36:51.721Z,99.90
2019-03-05T00:42:45.703Z,99.90
2019-03-05T00:48:27.233Z,99.90
2019-03-05T00:54:29.195Z,99.90
2019-03-05T01:00:17.598Z,99.90
2019-03-05T01:06:16.768Z,99.90
2019-03-05T01:11:31.226Z,99.90
2019-03-05T01:16:46.981Z,99.90
2019-03-05T01:22:01.331Z,99.90
2019-03-05T01:27:16.115Z,99.90
2019-03-05T01:32:47.991Z,99.90
2019-03-05T01:38:02.555Z,99.90
2019-03-05T01:43:16.775Z,99.90
2019-03-05T01:48:31.379Z,99.90
2019-03-05T01:53:45.846Z,99.90
2019-03-05T01:59:00.055Z,99.90
2019-03-05T02:04:15.139Z,99.90
2019-03-05T02:09:29.550Z,99.90
2019-03-05T02:14:44.031Z,99.90
2019-03-05T02:19:58.601Z,99.90
2019-03-05T02:25:20.546Z,99.90
2019-03-05T02:31:12.237Z,99.90
2019-03-05T02:37:10.731Z,99.90
2019-03-05T02:43:17.563Z,99.90
2019-03-05T02:48:50.149Z,99.90
2019-03-05T02:54:15.758Z,99.90
2019-03-05T02:59:30.102Z,99.90
2019-03-05T03:04:47.246Z,99.90
2019-03-05T03:10:16.808Z,99.90
2019-03-05T03:15:31.286Z,99.90
2019-03-05T03:20:45.840Z,99.90
2019-03-05T03:26:00.479Z,99.90
2019-03-05T03:31:15.012Z,99.90
2019-03-05T03:36:29.592Z,99.90
2019-03-05T03:41:43.889Z,99.90
2019-03-05T03:46:58.564Z,99.90
2019-03-05T03:52:13.235Z,99.90
2019-03-05T03:57:27.782Z,99.90
2019-03-05T04:02:41.984Z,99.90
2019-03-05T04:07:57.503Z,99.90
2019-03-05T04:13:11.808Z,99.90
2019-03-05T04:18:26.273Z,99.90
2019-03-05T04:23:40.857Z,99.90
2019-03-05T04:28:55.350Z,99.90
2019-03-05T04:34:09.849Z,99.90
2019-03-05T04:39:24.350Z,99.90
2019-03-05T04:44:46.382Z,99.90
2019-03-05T04:50:25.718Z,99.90
2019-03-05T04:55:40.135Z,99.90
2019-03-05T05:00:54.382Z,99.90
2019-03-05T05:06:10.131Z,99.90
2019-03-05T05:11:24.516Z,99.90
2019-03-05T05:16:38.895Z,99.90
2019-03-05T05:21:53.580Z,99.90
2019-03-05T05:27:08.205Z,99.90
2019-03-05T05:32:22.601Z,99.90
2019-03-05T05:37:37.165Z,99.90
2019-03-05T05:42:51.443Z,99.90
2019-03-05T05:48:06.042Z,99.90
2019-03-05T05:53:21.414Z,99.90
2019-03-05T05:58:35.756Z,99.90
2019-03-05T06:03:50.418Z,99.90
2019-03-05T06:09:07.129Z,99.90
2019-03-05T06:14:21.786Z,99.90
2019-03-05T06:19:36.373Z,99.90
2019-03-05T06:24:50.766Z,99.90
2019-03-05T06:30:05.939Z,99.90
2019-03-05T06:35:20.617Z,99.90
2019-03-05T06:40:35.108Z,99.90
2019-03-05T06:45:49.710Z,99.90
2019-03-05T06:51:03.916Z,99.90
2019-03-05T06:56:18.215Z,99.90
2019-03-05T07:01:33.256Z,99.90
2019-03-05T07:07:01.691Z,99.90
2019-03-05T07:12:38.729Z,99.90
2019-03-05T07:17:57.825Z,99.90
2019-03-05T07:23:21.402Z,99.90
2019-03-05T07:28:35.882Z,99.90
2019-03-05T07:33:50.319Z,99.90
2019-03-05T07:39:06.288Z,99.90
2019-03-05T07:44:21.120Z,99.90
2019-03-05T07:49:43.714Z,99.90
2019-03-05T07:54:52.595Z,99.90
2019-03-05T08:00:10.108Z,99.90
2019-03-05T08:05:24.847Z,99.90
2019-03-05T08:10:39.346Z,99.90
2019-03-05T08:16:39.179Z,99.90
2019-03-05T08:21:54.563Z,99.90
2019-03-05T08:27:09.239Z,99.90
2019-03-05T08:32:23.536Z,99.90
2019-03-05T08:37:38.102Z,99.90
2019-03-05T08:42:52.390Z,99.90
2019-03-05T08:48:06.980Z,99.90
2019-03-05T08:53:21.655Z,99.90
2019-03-05T08:58:36.085Z,99.90
2019-03-05T09:03:50.700Z,99.90
2019-03-05T09:09:07.389Z,99.90
2019-03-05T09:14:23.196Z,99.90
2019-03-05T09:19:37.903Z,99.90
2019-03-05T09:24:52.389Z,99.90
2019-03-05T09:30:09.092Z,99.90
2019-03-05T09:35:23.527Z,99.90
2019-03-05T09:40:38.021Z,99.90
2019-03-05T09:45:52.467Z,99.90
2019-03-05T09:51:06.774Z,99.90
2019-03-05T09:56:22.486Z,98.40
2019-03-05T10:01:37.117Z,97.40
2019-03-05T10:06:51.895Z,96.80
2019-03-05T10:12:06.482Z,95.50
2019-03-05T10:17:20.978Z,94.70
2019-03-05T10:22:35.233Z,92.80
2019-03-05T10:27:50.101Z,91.40
2019-03-05T10:33:06.672Z,90.00
2019-03-05T10:38:21.355Z,90.20
2019-03-05T10:43:37.308Z,90.20
2019-03-05T10:48:51.764Z,85.80
2019-03-05T10:54:06.261Z,84.80
2019-03-05T10:59:21.059Z,83.40
2019-03-05T11:04:45.405Z,79.30
2019-03-05T11:09:53.453Z,76.60
2019-03-05T11:15:12.702Z,80.70
2019-03-05T11:20:27.462Z,85.10
2019-03-05T11:25:42.465Z,88.80
2019-03-05T11:30:57.077Z,90.90
2019-03-05T11:36:11.788Z,92.00
2019-03-05T11:41:26.481Z,92.50
2019-03-05T11:46:41.129Z,92.80
2019-03-05T11:51:55.902Z,93.00
2019-03-05T11:57:10.451Z,93.10
2019-03-05T12:02:25.247Z,93.00
2019-03-05T12:07:39.586Z,93.20
2019-03-05T12:12:54.225Z,93.20
2019-03-05T12:18:08.979Z,92.90
2019-03-05T12:23:23.408Z,92.80
2019-03-05T12:28:38.179Z,92.50
2019-03-05T12:33:52.609Z,92.30
2019-03-05T12:39:09.256Z,91.90
2019-03-05T12:44:25.071Z,91.90
2019-03-05T12:49:39.590Z,91.60
2019-03-05T12:54:56.216Z,91.50
2019-03-05T13:00:21.523Z,91.60
2019-03-05T13:05:36.227Z,91.60
2019-03-05T13:10:50.851Z,91.80
2019-03-05T13:16:06.149Z,91.80
2019-03-05T13:21:20.859Z,91.80
2019-03-05T13:26:35.505Z,91.60
2019-03-05T13:31:49.996Z,91.40
2019-03-05T13:37:04.613Z,91.30
2019-03-05T13:42:19.070Z,91.20
2019-03-05T13:47:37.132Z,91.20
2019-03-05T13:53:22.541Z,91.00
2019-03-05T13:59:13.747Z,90.90
2019-03-05T14:04:53.948Z,90.80
2019-03-05T14:10:08.390Z,90.90
2019-03-05T14:15:23.023Z,91.00
2019-03-05T14:20:37.041Z,91.20
2019-03-05T14:25:53.836Z,91.40
2019-03-05T14:31:08.318Z,91.70
2019-03-05T14:36:22.979Z,92.00
2019-03-05T14:41:36.959Z,92.30
2019-03-05T14:46:55.684Z,92.50
2019-03-05T14:52:10.517Z,92.80
2019-03-05T14:57:25.007Z,93.20
2019-03-05T15:02:41.677Z,93.50
2019-03-05T15:07:56.328Z,93.70
2019-03-05T15:13:15.729Z,94.00
2019-03-05T15:18:26.553Z,94.30
2019-03-05T15:23:40.856Z,94.60
2019-03-05T15:28:56.544Z,94.90
2019-03-05T15:34:11.516Z,95.20
2019-03-05T15:39:26.093Z,95.50
2019-03-05T15:44:40.435Z,96.20
2019-03-05T15:49:55.029Z,96.50
2019-03-05T15:55:10.400Z,96.70
2019-03-05T16:00:29.815Z,96.90
2019-03-05T16:05:44.168Z,97.10
2019-03-05T16:11:00.662Z,97.30
2019-03-05T16:16:18.394Z,97.40
2019-03-05T16:21:31.230Z,97.60
2019-03-05T16:26:45.424Z,97.70
2019-03-05T16:32:26.831Z,97.80
2019-03-05T16:37:58.811Z,97.90
2019-03-05T16:43:50.635Z,98.00
2019-03-05T16:49:24.597Z,98.10
2019-03-05T16:55:00.808Z,98.20
2019-03-05T17:00:31.395Z,98.30
2019-03-05T17:06:17.017Z,98.40
2019-03-05T17:11:53.900Z,98.50
2019-03-05T17:17:13.131Z,98.60
2019-03-05T17:22:28.269Z,98.70
2019-03-05T17:27:42.556Z,98.90
2019-03-05T17:32:57.061Z,98.90
2019-03-05T17:38:11.860Z,99.00
2019-03-05T17:43:26.576Z,99.10
2019-03-05T17:48:41.075Z,99.30
2019-03-05T17:53:55.990Z,99.40
2019-03-05T17:59:10.837Z,99.50
2019-03-05T18:04:25.766Z,99.60
2019-03-05T18:09:40.131Z,99.80
2019-03-05T18:14:54.769Z,99.90
2019-03-05T18:20:13.131Z,99.90
2019-03-05T18:25:28.210Z,99.90
2019-03-05T18:30:42.970Z,99.90
2019-03-05T18:35:57.752Z,99.90
2019-03-05T18:41:12.690Z,99.90
2019-03-05T18:46:26.919Z,99.90
2019-03-05T18:51:41.276Z,99.90
2019-03-05T19:02:13.715Z,99.90
2019-03-05T19:07:28.174Z,99.90
2019-03-05T19:12:42.648Z,99.90
2019-03-05T19:17:57.440Z,99.90
2019-03-05T19:23:12.165Z,99.90
2019-03-05T19:28:27.696Z,99.90
2019-03-05T19:33:43.764Z,99.90
2019-03-05T19:38:58.404Z,99.90
2019-03-05T19:44:13.117Z,99.90
2019-03-05T19:49:27.880Z,99.90
2019-03-05T19:54:42.419Z,99.90
2019-03-05T19:59:56.787Z,99.90
2019-03-05T20:05:12.674Z,99.90
2019-03-05T20:10:27.518Z,99.90
2019-03-05T20:15:43.034Z,99.90
2019-03-05T20:20:57.514Z,99.90
2019-03-05T20:26:12.355Z,99.90
2019-03-05T20:31:27.140Z,99.90
2019-03-05T20:36:42.139Z,99.90
2019-03-05T20:41:57.024Z,99.90
2019-03-05T20:47:11.416Z,99.90
2019-03-05T20:52:27.154Z,99.90
2019-03-05T20:57:42.007Z,99.90
2019-03-05T21:02:58.772Z,99.90
2019-03-05T21:08:13.080Z,99.90
2019-03-05T21:13:27.868Z,99.90
2019-03-05T21:18:42.736Z,99.90
2019-03-05T21:23:57.101Z,99.90
2019-03-05T21:29:11.928Z,99.90
2019-03-05T21:34:26.605Z,99.90
2019-03-05T21:39:41.289Z,99.90
2019-03-05T21:44:56.342Z,99.90
2019-03-05T21:50:12.291Z,99.90
2019-03-05T21:55:27.025Z,99.90
2019-03-05T22:00:41.769Z,99.90
2019-03-05T22:05:56.778Z,99.90
2019-03-05T22:11:11.669Z,99.90
2019-03-05T22:16:26.812Z,99.90
2019-03-05T22:21:41.206Z,99.90
2019-03-05T22:26:55.522Z,99.90
2019-03-05T22:32:10.256Z,99.90
2019-03-05T22:37:24.643Z,99.90
2019-03-05T22:42:39.408Z,99.90
2019-03-05T22:47:53.973Z,99.90
2019-03-05T22:53:09.045Z,99.90
2019-03-05T22:58:23.750Z,99.90
2019-03-05T23:03:39.253Z,99.90
2019-03-05T23:08:53.840Z,99.90
2019-03-05T23:14:08.797Z,99.90
2019-03-05T23:19:23.440Z,99.90
2019-03-05T23:24:38.410Z,99.90
2019-03-05T23:29:52.931Z,99.90
2019-03-05T23:35:09.379Z,99.90
2019-03-05T23:40:23.533Z,99.90
2019-03-05T23:45:37.986Z,99.90
2019-03-05T23:50:52.089Z,99.90
2019-03-05T23:56:06.419Z,99.90
